sensor_id;sensor_type;location;lat;lon;timestamp;temperature;humidity
44517;DHT22;30223;17.182;-96.766;2023-05-10T00:00:32;28.80;54.20
44517;DHT22;30223;17.182;-96.766;2023-05-10T00:02:59;28.80;54.20
44517;DHT22;30223;17.182;-96.766;2023-05-10T00:05:26;28.80;54.20
44517;DHT22;30223;17.182;-96.766;2023-05-10T00:07:53;28.80;54.20
44517;DHT22;30223;17.182;-96.766;2023-05-10T00:10:19;28.80;54.20
44517;DHT22;30223;17.182;-96.766;2023-05-10T00:12:46;28.80;54.30
44517;DHT22;30223;17.182;-96.766;2023-05-10T00:15:13;28.70;54.20
44517;DHT22;30223;17.182;-96.766;2023-05-10T00:17:40;28.70;54.20
44517;DHT22;30223;17.182;-96.766;2023-05-10T00:20:07;28.70;54.30
44517;DHT22;30223;17.182;-96.766;2023-05-10T00:22:34;28.60;54.20
44517;DHT22;30223;17.182;-96.766;2023-05-10T00:25:01;28.60;54.20
44517;DHT22;30223;17.182;-96.766;2023-05-10T00:27:28;28.60;54.20
44517;DHT22;30223;17.182;-96.766;2023-05-10T00:29:54;28.60;54.20
44517;DHT22;30223;17.182;-96.766;2023-05-10T00:32:21;28.60;54.20
44517;DHT22;30223;17.182;-96.766;2023-05-10T00:34:48;28.60;54.20
44517;DHT22;30223;17.182;-96.766;2023-05-10T00:37:15;28.60;54.20
44517;DHT22;30223;17.182;-96.766;2023-05-10T00:39:41;28.50;54.20
44517;DHT22;30223;17.182;-96.766;2023-05-10T00:42:08;28.50;54.20
44517;DHT22;30223;17.182;-96.766;2023-05-10T00:44:35;28.50;54.20
44517;DHT22;30223;17.182;-96.766;2023-05-10T00:47:02;28.40;54.10
44517;DHT22;30223;17.182;-96.766;2023-05-10T00:49:29;28.50;54.20
44517;DHT22;30223;17.182;-96.766;2023-05-10T00:51:56;28.40;54.10
44517;DHT22;30223;17.182;-96.766;2023-05-10T00:54:23;28.40;54.10
44517;DHT22;30223;17.182;-96.766;2023-05-10T00:56:50;28.40;54.10
44517;DHT22;30223;17.182;-96.766;2023-05-10T00:59:17;28.40;54.10
44517;DHT22;30223;17.182;-96.766;2023-05-10T01:01:48;28.40;54.10
44517;DHT22;30223;17.182;-96.766;2023-05-10T01:04:15;28.40;54.00
44517;DHT22;30223;17.182;-96.766;2023-05-10T01:06:42;28.30;54.00
44517;DHT22;30223;17.182;-96.766;2023-05-10T01:09:10;28.30;53.90
44517;DHT22;30223;17.182;-96.766;2023-05-10T01:11:38;28.30;53.90
44517;DHT22;30223;17.182;-96.766;2023-05-10T01:14:06;28.20;54.50
44517;DHT22;30223;17.182;-96.766;2023-05-10T01:16:37;28.30;53.90
44517;DHT22;30223;17.182;-96.766;2023-05-10T01:19:12;28.20;53.90
44517;DHT22;30223;17.182;-96.766;2023-05-10T01:22:04;28.20;53.80
44517;DHT22;30223;17.182;-96.766;2023-05-10T01:34:06;28.10;53.70
44517;DHT22;30223;17.182;-96.766;2023-05-10T01:36:51;28.10;53.70
44517;DHT22;30223;17.182;-96.766;2023-05-10T01:39:44;28.10;54.30
44517;DHT22;30223;17.182;-96.766;2023-05-10T01:42:16;28.00;53.60
44517;DHT22;30223;17.182;-96.766;2023-05-10T01:45:00;28.00;53.60
44517;DHT22;30223;17.182;-96.766;2023-05-10T01:47:40;28.00;53.60
44517;DHT22;30223;17.182;-96.766;2023-05-10T01:50:19;28.00;53.60
44517;DHT22;30223;17.182;-96.766;2023-05-10T01:52:53;28.00;53.60
44517;DHT22;30223;17.182;-96.766;2023-05-10T01:55:28;28.00;53.60
44517;DHT22;30223;17.182;-96.766;2023-05-10T01:58:07;27.90;53.50
44517;DHT22;30223;17.182;-96.766;2023-05-10T02:00:35;27.90;53.50
44517;DHT22;30223;17.182;-96.766;2023-05-10T02:03:05;28.00;53.60
44517;DHT22;30223;17.182;-96.766;2023-05-10T02:05:33;27.90;53.50
44517;DHT22;30223;17.182;-96.766;2023-05-10T02:08:02;27.90;53.50
44517;DHT22;30223;17.182;-96.766;2023-05-10T02:10:29;27.90;53.50
44517;DHT22;30223;17.182;-96.766;2023-05-10T02:12:59;27.80;53.40
44517;DHT22;30223;17.182;-96.766;2023-05-10T02:15:26;27.80;53.40
44517;DHT22;30223;17.182;-96.766;2023-05-10T02:17:55;27.80;53.40
44517;DHT22;30223;17.182;-96.766;2023-05-10T02:20:23;27.80;53.40
44517;DHT22;30223;17.182;-96.766;2023-05-10T02:22:52;27.80;53.40
44517;DHT22;30223;17.182;-96.766;2023-05-10T02:25:21;27.80;53.40
44517;DHT22;30223;17.182;-96.766;2023-05-10T02:27:49;27.80;53.40
44517;DHT22;30223;17.182;-96.766;2023-05-10T02:30:17;27.70;53.30
44517;DHT22;30223;17.182;-96.766;2023-05-10T02:32:44;27.70;53.30
44517;DHT22;30223;17.182;-96.766;2023-05-10T02:35:12;27.70;53.30
44517;DHT22;30223;17.182;-96.766;2023-05-10T02:37:40;27.70;53.30
44517;DHT22;30223;17.182;-96.766;2023-05-10T02:40:08;27.70;53.30
44517;DHT22;30223;17.182;-96.766;2023-05-10T02:42:37;27.70;53.30
44517;DHT22;30223;17.182;-96.766;2023-05-10T02:45:10;27.60;53.20
44517;DHT22;30223;17.182;-96.766;2023-05-10T02:47:38;27.60;53.20
44517;DHT22;30223;17.182;-96.766;2023-05-10T02:50:06;27.60;53.20
44517;DHT22;30223;17.182;-96.766;2023-05-10T02:52:49;27.60;53.20
44517;DHT22;30223;17.182;-96.766;2023-05-10T02:55:21;27.50;53.10
44517;DHT22;30223;17.182;-96.766;2023-05-10T02:57:54;27.50;53.10
44517;DHT22;30223;17.182;-96.766;2023-05-10T03:00:24;27.50;53.10
44517;DHT22;30223;17.182;-96.766;2023-05-10T03:02:51;27.50;53.10
44517;DHT22;30223;17.182;-96.766;2023-05-10T03:05:18;27.50;53.10
44517;DHT22;30223;17.182;-96.766;2023-05-10T03:07:46;27.50;53.10
44517;DHT22;30223;17.182;-96.766;2023-05-10T03:10:13;27.40;53.00
44517;DHT22;30223;17.182;-96.766;2023-05-10T03:18:21;27.40;53.00
44517;DHT22;30223;17.182;-96.766;2023-05-10T03:20:55;27.40;53.00
44517;DHT22;30223;17.182;-96.766;2023-05-10T03:23:50;27.40;53.00
44517;DHT22;30223;17.182;-96.766;2023-05-10T03:26:26;27.40;53.00
44517;DHT22;30223;17.182;-96.766;2023-05-10T03:28:53;27.30;52.90
44517;DHT22;30223;17.182;-96.766;2023-05-10T03:31:21;27.40;52.90
44517;DHT22;30223;17.182;-96.766;2023-05-10T03:33:52;27.30;52.90
44517;DHT22;30223;17.182;-96.766;2023-05-10T03:36:19;27.30;52.90
44517;DHT22;30223;17.182;-96.766;2023-05-10T03:38:46;27.30;52.90
44517;DHT22;30223;17.182;-96.766;2023-05-10T03:41:15;27.30;52.80
44517;DHT22;30223;17.182;-96.766;2023-05-10T03:43:42;27.20;52.80
44517;DHT22;30223;17.182;-96.766;2023-05-10T03:46:09;27.30;52.80
44517;DHT22;30223;17.182;-96.766;2023-05-10T03:48:35;27.30;52.80
44517;DHT22;30223;17.182;-96.766;2023-05-10T03:51:02;27.20;52.80
44517;DHT22;30223;17.182;-96.766;2023-05-10T03:53:29;27.20;52.70
44517;DHT22;30223;17.182;-96.766;2023-05-10T03:55:56;27.20;52.70
44517;DHT22;30223;17.182;-96.766;2023-05-10T03:58:22;27.10;52.60
44517;DHT22;30223;17.182;-96.766;2023-05-10T04:00:50;27.20;52.70
44517;DHT22;30223;17.182;-96.766;2023-05-10T04:03:17;27.10;52.60
44517;DHT22;30223;17.182;-96.766;2023-05-10T04:05:44;27.20;52.70
44517;DHT22;30223;17.182;-96.766;2023-05-10T04:08:11;27.10;52.60
44517;DHT22;30223;17.182;-96.766;2023-05-10T04:10:37;27.10;52.60
44517;DHT22;30223;17.182;-96.766;2023-05-10T04:13:04;27.10;52.60
44517;DHT22;30223;17.182;-96.766;2023-05-10T04:15:31;27.10;52.60
44517;DHT22;30223;17.182;-96.766;2023-05-10T04:17:58;27.10;52.60
44517;DHT22;30223;17.182;-96.766;2023-05-10T04:20:28;27.10;52.60
44517;DHT22;30223;17.182;-96.766;2023-05-10T04:22:55;27.00;52.50
44517;DHT22;30223;17.182;-96.766;2023-05-10T04:25:21;27.00;52.50
44517;DHT22;30223;17.182;-96.766;2023-05-10T04:27:48;27.00;52.50
44517;DHT22;30223;17.182;-96.766;2023-05-10T04:30:15;27.00;52.50
44517;DHT22;30223;17.182;-96.766;2023-05-10T04:32:41;27.00;52.50
44517;DHT22;30223;17.182;-96.766;2023-05-10T04:35:08;27.00;52.50
44517;DHT22;30223;17.182;-96.766;2023-05-10T04:37:36;27.00;52.50
44517;DHT22;30223;17.182;-96.766;2023-05-10T04:40:03;27.00;52.50
44517;DHT22;30223;17.182;-96.766;2023-05-10T04:42:33;27.00;52.40
44517;DHT22;30223;17.182;-96.766;2023-05-10T04:44:59;26.90;52.40
44517;DHT22;30223;17.182;-96.766;2023-05-10T04:47:29;26.90;52.40
44517;DHT22;30223;17.182;-96.766;2023-05-10T04:49:55;26.90;52.40
44517;DHT22;30223;17.182;-96.766;2023-05-10T04:52:22;26.90;52.40
44517;DHT22;30223;17.182;-96.766;2023-05-10T04:54:49;26.90;52.30
44517;DHT22;30223;17.182;-96.766;2023-05-10T04:57:16;26.80;52.30
44517;DHT22;30223;17.182;-96.766;2023-05-10T04:59:43;26.90;52.30
44517;DHT22;30223;17.182;-96.766;2023-05-10T05:02:10;26.90;52.30
44517;DHT22;30223;17.182;-96.766;2023-05-10T05:04:37;26.80;52.20
44517;DHT22;30223;17.182;-96.766;2023-05-10T05:07:03;26.80;52.30
44517;DHT22;30223;17.182;-96.766;2023-05-10T05:09:30;26.80;52.20
44517;DHT22;30223;17.182;-96.766;2023-05-10T05:11:58;26.80;52.20
44517;DHT22;30223;17.182;-96.766;2023-05-10T05:14:25;26.80;52.20
44517;DHT22;30223;17.182;-96.766;2023-05-10T05:16:52;26.80;52.20
44517;DHT22;30223;17.182;-96.766;2023-05-10T05:19:19;26.80;52.20
44517;DHT22;30223;17.182;-96.766;2023-05-10T05:21:46;26.70;52.10
44517;DHT22;30223;17.182;-96.766;2023-05-10T05:24:13;26.70;52.10
44517;DHT22;30223;17.182;-96.766;2023-05-10T05:26:40;26.70;52.10
44517;DHT22;30223;17.182;-96.766;2023-05-10T05:29:07;26.70;52.20
44517;DHT22;30223;17.182;-96.766;2023-05-10T05:31:34;26.70;52.10
44517;DHT22;30223;17.182;-96.766;2023-05-10T05:34:01;26.70;52.20
44517;DHT22;30223;17.182;-96.766;2023-05-10T05:36:27;26.70;52.20
44517;DHT22;30223;17.182;-96.766;2023-05-10T05:38:54;26.70;52.10
44517;DHT22;30223;17.182;-96.766;2023-05-10T05:41:21;26.60;52.10
44517;DHT22;30223;17.182;-96.766;2023-05-10T05:43:48;26.60;52.10
44517;DHT22;30223;17.182;-96.766;2023-05-10T05:46:15;26.60;52.10
44517;DHT22;30223;17.182;-96.766;2023-05-10T05:48:41;26.60;52.10
44517;DHT22;30223;17.182;-96.766;2023-05-10T05:51:08;26.60;52.10
44517;DHT22;30223;17.182;-96.766;2023-05-10T05:53:35;26.60;52.10
44517;DHT22;30223;17.182;-96.766;2023-05-10T05:56:02;26.60;52.10
44517;DHT22;30223;17.182;-96.766;2023-05-10T05:58:29;26.50;52.00
44517;DHT22;30223;17.182;-96.766;2023-05-10T06:00:56;26.50;52.00
44517;DHT22;30223;17.182;-96.766;2023-05-10T06:03:23;26.50;52.00
44517;DHT22;30223;17.182;-96.766;2023-05-10T06:05:50;26.50;52.00
44517;DHT22;30223;17.182;-96.766;2023-05-10T06:08:16;26.50;52.00
44517;DHT22;30223;17.182;-96.766;2023-05-10T06:10:43;26.50;52.00
44517;DHT22;30223;17.182;-96.766;2023-05-10T06:13:10;26.50;52.00
44517;DHT22;30223;17.182;-96.766;2023-05-10T06:15:37;26.40;52.00
44517;DHT22;30223;17.182;-96.766;2023-05-10T06:18:04;26.40;51.90
44517;DHT22;30223;17.182;-96.766;2023-05-10T06:20:32;26.50;52.00
44517;DHT22;30223;17.182;-96.766;2023-05-10T06:22:58;26.40;51.90
44517;DHT22;30223;17.182;-96.766;2023-05-10T06:25:25;26.40;51.90
44517;DHT22;30223;17.182;-96.766;2023-05-10T06:27:52;26.40;51.90
44517;DHT22;30223;17.182;-96.766;2023-05-10T06:30:24;26.40;51.90
44517;DHT22;30223;17.182;-96.766;2023-05-10T06:32:53;26.40;51.90
44517;DHT22;30223;17.182;-96.766;2023-05-10T06:35:20;26.30;51.90
44517;DHT22;30223;17.182;-96.766;2023-05-10T06:37:47;26.30;51.90
44517;DHT22;30223;17.182;-96.766;2023-05-10T06:40:14;26.30;51.90
44517;DHT22;30223;17.182;-96.766;2023-05-10T06:42:40;26.30;51.90
44517;DHT22;30223;17.182;-96.766;2023-05-10T06:45:08;26.30;51.90
44517;DHT22;30223;17.182;-96.766;2023-05-10T06:47:35;26.30;51.90
44517;DHT22;30223;17.182;-96.766;2023-05-10T06:50:02;26.30;51.90
44517;DHT22;30223;17.182;-96.766;2023-05-10T06:52:29;26.30;51.80
44517;DHT22;30223;17.182;-96.766;2023-05-10T06:54:55;26.20;51.70
44517;DHT22;30223;17.182;-96.766;2023-05-10T06:57:23;26.30;51.90
44517;DHT22;30223;17.182;-96.766;2023-05-10T06:59:51;26.30;51.80
44517;DHT22;30223;17.182;-96.766;2023-05-10T07:02:18;26.20;51.80
44517;DHT22;30223;17.182;-96.766;2023-05-10T07:04:44;26.20;51.70
44517;DHT22;30223;17.182;-96.766;2023-05-10T07:07:14;26.20;51.80
44517;DHT22;30223;17.182;-96.766;2023-05-10T07:09:41;26.20;51.80
44517;DHT22;30223;17.182;-96.766;2023-05-10T07:12:08;26.20;51.80
44517;DHT22;30223;17.182;-96.766;2023-05-10T07:14:34;26.20;51.80
44517;DHT22;30223;17.182;-96.766;2023-05-10T07:17:01;26.10;51.70
44517;DHT22;30223;17.182;-96.766;2023-05-10T07:19:28;26.10;51.70
44517;DHT22;30223;17.182;-96.766;2023-05-10T07:21:55;26.10;51.80
44517;DHT22;30223;17.182;-96.766;2023-05-10T07:24:24;26.10;51.80
44517;DHT22;30223;17.182;-96.766;2023-05-10T07:26:51;26.10;51.80
44517;DHT22;30223;17.182;-96.766;2023-05-10T07:29:17;26.10;51.70
44517;DHT22;30223;17.182;-96.766;2023-05-10T07:31:44;26.10;51.80
44517;DHT22;30223;17.182;-96.766;2023-05-10T07:34:11;26.00;51.70
44517;DHT22;30223;17.182;-96.766;2023-05-10T07:36:37;26.00;51.70
44517;DHT22;30223;17.182;-96.766;2023-05-10T07:39:04;26.00;51.70
44517;DHT22;30223;17.182;-96.766;2023-05-10T07:41:31;26.00;51.70
44517;DHT22;30223;17.182;-96.766;2023-05-10T07:43:58;26.00;51.70
44517;DHT22;30223;17.182;-96.766;2023-05-10T07:46:25;26.00;51.60
44517;DHT22;30223;17.182;-96.766;2023-05-10T07:48:52;26.00;51.70
44517;DHT22;30223;17.182;-96.766;2023-05-10T07:51:18;25.90;51.60
44517;DHT22;30223;17.182;-96.766;2023-05-10T07:53:45;25.90;51.60
44517;DHT22;30223;17.182;-96.766;2023-05-10T07:56:27;25.90;51.60
44517;DHT22;30223;17.182;-96.766;2023-05-10T07:58:56;25.90;51.50
44517;DHT22;30223;17.182;-96.766;2023-05-10T08:01:23;25.90;51.60
44517;DHT22;30223;17.182;-96.766;2023-05-10T08:03:49;25.90;51.50
44517;DHT22;30223;17.182;-96.766;2023-05-10T08:06:20;25.90;51.50
44517;DHT22;30223;17.182;-96.766;2023-05-10T08:08:48;25.90;51.50
44517;DHT22;30223;17.182;-96.766;2023-05-10T08:11:20;25.90;51.50
44517;DHT22;30223;17.182;-96.766;2023-05-10T08:13:48;25.90;51.60
44517;DHT22;30223;17.182;-96.766;2023-05-10T08:16:16;25.90;51.60
44517;DHT22;30223;17.182;-96.766;2023-05-10T08:18:44;25.80;51.50
44517;DHT22;30223;17.182;-96.766;2023-05-10T08:21:11;25.80;51.50
44517;DHT22;30223;17.182;-96.766;2023-05-10T08:23:38;25.80;51.50
44517;DHT22;30223;17.182;-96.766;2023-05-10T08:26:04;25.80;51.50
44517;DHT22;30223;17.182;-96.766;2023-05-10T08:28:31;25.80;51.50
44517;DHT22;30223;17.182;-96.766;2023-05-10T08:30:58;25.70;51.40
44517;DHT22;30223;17.182;-96.766;2023-05-10T08:33:25;25.80;51.50
44517;DHT22;30223;17.182;-96.766;2023-05-10T08:35:52;25.80;51.50
44517;DHT22;30223;17.182;-96.766;2023-05-10T08:38:18;25.70;51.40
44517;DHT22;30223;17.182;-96.766;2023-05-10T08:40:45;25.70;51.40
44517;DHT22;30223;17.182;-96.766;2023-05-10T08:43:14;25.70;51.50
44517;DHT22;30223;17.182;-96.766;2023-05-10T08:45:44;25.70;51.50
44517;DHT22;30223;17.182;-96.766;2023-05-10T08:48:13;25.70;51.50
44517;DHT22;30223;17.182;-96.766;2023-05-10T08:50:41;25.70;51.50
44517;DHT22;30223;17.182;-96.766;2023-05-10T08:53:13;25.70;51.50
44517;DHT22;30223;17.182;-96.766;2023-05-10T08:55:41;25.70;51.40
44517;DHT22;30223;17.182;-96.766;2023-05-10T08:58:09;25.60;51.40
44517;DHT22;30223;17.182;-96.766;2023-05-10T09:00:36;25.60;51.40
44517;DHT22;30223;17.182;-96.766;2023-05-10T09:03:04;25.60;51.40
44517;DHT22;30223;17.182;-96.766;2023-05-10T09:05:32;25.60;51.40
44517;DHT22;30223;17.182;-96.766;2023-05-10T09:07:59;25.60;51.40
44517;DHT22;30223;17.182;-96.766;2023-05-10T09:10:28;25.60;51.40
44517;DHT22;30223;17.182;-96.766;2023-05-10T09:12:57;25.50;51.40
44517;DHT22;30223;17.182;-96.766;2023-05-10T09:15:24;25.60;51.40
44517;DHT22;30223;17.182;-96.766;2023-05-10T09:17:51;25.50;51.30
44517;DHT22;30223;17.182;-96.766;2023-05-10T09:20:18;25.50;51.40
44517;DHT22;30223;17.182;-96.766;2023-05-10T09:22:48;25.50;51.30
44517;DHT22;30223;17.182;-96.766;2023-05-10T09:25:16;25.50;51.30
44517;DHT22;30223;17.182;-96.766;2023-05-10T09:27:47;25.50;51.40
44517;DHT22;30223;17.182;-96.766;2023-05-10T09:30:32;25.50;51.40
44517;DHT22;30223;17.182;-96.766;2023-05-10T09:32:59;25.50;51.40
44517;DHT22;30223;17.182;-96.766;2023-05-10T09:35:28;25.40;51.30
44517;DHT22;30223;17.182;-96.766;2023-05-10T09:37:57;25.40;51.30
44517;DHT22;30223;17.182;-96.766;2023-05-10T09:40:26;25.40;51.30
44517;DHT22;30223;17.182;-96.766;2023-05-10T09:43:04;25.30;51.90
44517;DHT22;30223;17.182;-96.766;2023-05-10T09:45:33;25.30;51.30
44517;DHT22;30223;17.182;-96.766;2023-05-10T09:48:03;25.30;51.20
44517;DHT22;30223;17.182;-96.766;2023-05-10T09:50:30;25.40;51.30
44517;DHT22;30223;17.182;-96.766;2023-05-10T09:52:59;25.30;51.20
44517;DHT22;30223;17.182;-96.766;2023-05-10T09:55:39;25.30;51.20
44517;DHT22;30223;17.182;-96.766;2023-05-10T09:58:07;25.30;51.20
44517;DHT22;30223;17.182;-96.766;2023-05-10T10:00:38;25.30;51.30
44517;DHT22;30223;17.182;-96.766;2023-05-10T10:03:05;25.30;51.30
44517;DHT22;30223;17.182;-96.766;2023-05-10T10:05:34;25.30;51.30
44517;DHT22;30223;17.182;-96.766;2023-05-10T10:08:05;25.20;51.20
44517;DHT22;30223;17.182;-96.766;2023-05-10T10:10:33;25.30;51.30
44517;DHT22;30223;17.182;-96.766;2023-05-10T10:13:01;25.20;51.20
44517;DHT22;30223;17.182;-96.766;2023-05-10T10:15:31;25.20;51.20
44517;DHT22;30223;17.182;-96.766;2023-05-10T10:17:59;25.20;51.20
44517;DHT22;30223;17.182;-96.766;2023-05-10T10:20:27;25.20;51.20
44517;DHT22;30223;17.182;-96.766;2023-05-10T10:22:54;25.10;51.20
44517;DHT22;30223;17.182;-96.766;2023-05-10T10:25:21;25.20;51.20
44517;DHT22;30223;17.182;-96.766;2023-05-10T10:33:26;25.10;51.20
44517;DHT22;30223;17.182;-96.766;2023-05-10T10:35:58;25.10;51.10
44517;DHT22;30223;17.182;-96.766;2023-05-10T10:38:35;25.10;51.10
44517;DHT22;30223;17.182;-96.766;2023-05-10T10:50:07;25.10;51.20
44517;DHT22;30223;17.182;-96.766;2023-05-10T10:55:12;25.00;51.10
44517;DHT22;30223;17.182;-96.766;2023-05-10T11:03:13;25.00;51.10
44517;DHT22;30223;17.182;-96.766;2023-05-10T11:05:48;25.00;51.00
44517;DHT22;30223;17.182;-96.766;2023-05-10T11:11:03;24.90;51.00
44517;DHT22;30223;17.182;-96.766;2023-05-10T11:19:13;24.90;51.00
44517;DHT22;30223;17.182;-96.766;2023-05-10T11:24:16;24.90;51.00
44517;DHT22;30223;17.182;-96.766;2023-05-10T11:26:43;24.80;51.00
44517;DHT22;30223;17.182;-96.766;2023-05-10T11:29:11;24.80;51.00
44517;DHT22;30223;17.182;-96.766;2023-05-10T11:31:48;24.80;51.00
44517;DHT22;30223;17.182;-96.766;2023-05-10T11:34:31;24.80;51.00
44517;DHT22;30223;17.182;-96.766;2023-05-10T11:37:01;24.80;51.00
44517;DHT22;30223;17.182;-96.766;2023-05-10T11:39:29;24.80;51.00
44517;DHT22;30223;17.182;-96.766;2023-05-10T11:41:56;24.80;51.00
44517;DHT22;30223;17.182;-96.766;2023-05-10T11:44:24;24.80;51.00
44517;DHT22;30223;17.182;-96.766;2023-05-10T11:47:01;24.70;51.00
44517;DHT22;30223;17.182;-96.766;2023-05-10T11:49:28;24.70;50.90
44517;DHT22;30223;17.182;-96.766;2023-05-10T11:52:07;24.70;50.90
44517;DHT22;30223;17.182;-96.766;2023-05-10T11:54:34;24.70;50.90
44517;DHT22;30223;17.182;-96.766;2023-05-10T11:57:04;24.70;50.90
44517;DHT22;30223;17.182;-96.766;2023-05-10T11:59:31;24.70;51.00
44517;DHT22;30223;17.182;-96.766;2023-05-10T12:01:57;24.70;50.90
44517;DHT22;30223;17.182;-96.766;2023-05-10T12:04:25;24.70;50.90
44517;DHT22;30223;17.182;-96.766;2023-05-10T12:07:01;24.70;50.90
44517;DHT22;30223;17.182;-96.766;2023-05-10T12:09:28;24.60;51.50
44517;DHT22;30223;17.182;-96.766;2023-05-10T12:11:56;24.60;50.80
44517;DHT22;30223;17.182;-96.766;2023-05-10T12:14:23;24.60;50.90
44517;DHT22;30223;17.182;-96.766;2023-05-10T12:16:50;24.60;50.90
44517;DHT22;30223;17.182;-96.766;2023-05-10T12:19:20;24.60;50.80
44517;DHT22;30223;17.182;-96.766;2023-05-10T12:21:47;24.60;50.80
44517;DHT22;30223;17.182;-96.766;2023-05-10T12:24:14;24.60;50.80
44517;DHT22;30223;17.182;-96.766;2023-05-10T12:26:45;24.50;50.70
44517;DHT22;30223;17.182;-96.766;2023-05-10T12:29:17;24.50;50.80
44517;DHT22;30223;17.182;-96.766;2023-05-10T12:31:54;24.50;50.70
44517;DHT22;30223;17.182;-96.766;2023-05-10T12:34:34;24.50;50.70
44517;DHT22;30223;17.182;-96.766;2023-05-10T12:37:03;24.50;50.80
44517;DHT22;30223;17.182;-96.766;2023-05-10T12:39:43;24.50;50.70
44517;DHT22;30223;17.182;-96.766;2023-05-10T12:42:11;24.50;50.70
44517;DHT22;30223;17.182;-96.766;2023-05-10T12:44:38;24.50;50.70
44517;DHT22;30223;17.182;-96.766;2023-05-10T12:47:05;24.50;50.70
44517;DHT22;30223;17.182;-96.766;2023-05-10T12:49:32;24.40;50.70
44517;DHT22;30223;17.182;-96.766;2023-05-10T12:51:58;24.40;50.70
44517;DHT22;30223;17.182;-96.766;2023-05-10T12:54:25;24.40;50.70
44517;DHT22;30223;17.182;-96.766;2023-05-10T12:56:52;24.40;50.70
44517;DHT22;30223;17.182;-96.766;2023-05-10T12:59:18;24.40;50.70
44517;DHT22;30223;17.182;-96.766;2023-05-10T13:01:45;24.40;50.70
44517;DHT22;30223;17.182;-96.766;2023-05-10T13:04:12;24.40;50.70
44517;DHT22;30223;17.182;-96.766;2023-05-10T13:06:39;24.40;50.70
44517;DHT22;30223;17.182;-96.766;2023-05-10T13:09:05;24.30;50.70
44517;DHT22;30223;17.182;-96.766;2023-05-10T13:11:33;24.30;50.70
44517;DHT22;30223;17.182;-96.766;2023-05-10T13:13:59;24.30;50.70
44517;DHT22;30223;17.182;-96.766;2023-05-10T13:16:26;24.30;50.70
44517;DHT22;30223;17.182;-96.766;2023-05-10T13:18:53;24.30;50.70
44517;DHT22;30223;17.182;-96.766;2023-05-10T13:21:20;24.30;50.70
44517;DHT22;30223;17.182;-96.766;2023-05-10T13:23:46;24.30;50.70
44517;DHT22;30223;17.182;-96.766;2023-05-10T13:26:13;24.30;50.70
44517;DHT22;30223;17.182;-96.766;2023-05-10T13:28:40;24.20;50.60
44517;DHT22;30223;17.182;-96.766;2023-05-10T13:31:07;24.30;50.70
44517;DHT22;30223;17.182;-96.766;2023-05-10T13:33:34;24.20;50.60
44517;DHT22;30223;17.182;-96.766;2023-05-10T13:36:00;24.30;50.70
44517;DHT22;30223;17.182;-96.766;2023-05-10T13:38:27;24.20;50.60
44517;DHT22;30223;17.182;-96.766;2023-05-10T13:40:54;24.20;50.70
44517;DHT22;30223;17.182;-96.766;2023-05-10T13:43:21;24.20;50.70
44517;DHT22;30223;17.182;-96.766;2023-05-10T13:45:48;24.20;50.60
44517;DHT22;30223;17.182;-96.766;2023-05-10T13:48:14;24.20;50.70
44517;DHT22;30223;17.182;-96.766;2023-05-10T13:50:41;24.20;50.70
44517;DHT22;30223;17.182;-96.766;2023-05-10T13:53:08;24.20;50.70
44517;DHT22;30223;17.182;-96.766;2023-05-10T13:55:35;24.20;50.70
44517;DHT22;30223;17.182;-96.766;2023-05-10T13:58:01;24.10;50.70
44517;DHT22;30223;17.182;-96.766;2023-05-10T14:00:28;24.20;50.70
44517;DHT22;30223;17.182;-96.766;2023-05-10T14:02:55;24.10;50.70
44517;DHT22;30223;17.182;-96.766;2023-05-10T14:05:22;24.10;50.70
44517;DHT22;30223;17.182;-96.766;2023-05-10T14:07:50;24.10;50.70
44517;DHT22;30223;17.182;-96.766;2023-05-10T14:10:17;24.10;50.70
44517;DHT22;30223;17.182;-96.766;2023-05-10T14:12:43;24.10;50.70
44517;DHT22;30223;17.182;-96.766;2023-05-10T14:15:10;24.10;51.40
44517;DHT22;30223;17.182;-96.766;2023-05-10T14:17:37;24.10;50.80
44517;DHT22;30223;17.182;-96.766;2023-05-10T14:20:04;24.10;50.80
44517;DHT22;30223;17.182;-96.766;2023-05-10T14:22:34;24.10;50.80
44517;DHT22;30223;17.182;-96.766;2023-05-10T14:25:01;24.10;50.80
44517;DHT22;30223;17.182;-96.766;2023-05-10T14:27:28;24.10;50.80
44517;DHT22;30223;17.182;-96.766;2023-05-10T14:29:55;24.10;50.90
44517;DHT22;30223;17.182;-96.766;2023-05-10T14:32:24;24.10;50.90
44517;DHT22;30223;17.182;-96.766;2023-05-10T14:34:50;24.10;50.90
44517;DHT22;30223;17.182;-96.766;2023-05-10T14:37:17;24.10;50.90
44517;DHT22;30223;17.182;-96.766;2023-05-10T14:39:44;24.10;50.90
44517;DHT22;30223;17.182;-96.766;2023-05-10T14:42:12;24.00;50.90
44517;DHT22;30223;17.182;-96.766;2023-05-10T14:44:38;24.10;50.90
44517;DHT22;30223;17.182;-96.766;2023-05-10T14:47:05;24.10;50.90
44517;DHT22;30223;17.182;-96.766;2023-05-10T14:49:32;24.10;50.90
44517;DHT22;30223;17.182;-96.766;2023-05-10T14:51:59;24.10;50.90
44517;DHT22;30223;17.182;-96.766;2023-05-10T14:54:25;24.10;50.90
44517;DHT22;30223;17.182;-96.766;2023-05-10T14:56:53;24.10;50.90
44517;DHT22;30223;17.182;-96.766;2023-05-10T14:59:21;24.10;50.90
44517;DHT22;30223;17.182;-96.766;2023-05-10T15:01:47;24.10;50.90
44517;DHT22;30223;17.182;-96.766;2023-05-10T15:04:14;24.10;50.90
44517;DHT22;30223;17.182;-96.766;2023-05-10T15:06:42;24.10;50.90
44517;DHT22;30223;17.182;-96.766;2023-05-10T15:09:09;24.10;50.90
44517;DHT22;30223;17.182;-96.766;2023-05-10T15:11:36;24.10;50.80
44517;DHT22;30223;17.182;-96.766;2023-05-10T15:14:02;24.10;50.90
44517;DHT22;30223;17.182;-96.766;2023-05-10T15:16:29;24.10;50.90
44517;DHT22;30223;17.182;-96.766;2023-05-10T15:18:56;24.10;50.80
44517;DHT22;30223;17.182;-96.766;2023-05-10T15:21:23;24.20;50.90
44517;DHT22;30223;17.182;-96.766;2023-05-10T15:23:52;24.20;50.80
44517;DHT22;30223;17.182;-96.766;2023-05-10T15:26:18;24.20;50.80
44517;DHT22;30223;17.182;-96.766;2023-05-10T15:28:45;24.20;50.80
44517;DHT22;30223;17.182;-96.766;2023-05-10T15:31:12;24.20;50.80
44517;DHT22;30223;17.182;-96.766;2023-05-10T15:33:38;24.20;50.80
44517;DHT22;30223;17.182;-96.766;2023-05-10T15:36:05;24.30;50.80
44517;DHT22;30223;17.182;-96.766;2023-05-10T15:38:32;24.30;50.80
44517;DHT22;30223;17.182;-96.766;2023-05-10T15:40:59;24.30;50.80
44517;DHT22;30223;17.182;-96.766;2023-05-10T15:43:26;24.30;50.80
44517;DHT22;30223;17.182;-96.766;2023-05-10T15:45:53;24.30;50.70
44517;DHT22;30223;17.182;-96.766;2023-05-10T15:48:19;24.30;50.70
44517;DHT22;30223;17.182;-96.766;2023-05-10T15:50:46;24.40;50.80
44517;DHT22;30223;17.182;-96.766;2023-05-10T15:53:13;24.40;50.80
44517;DHT22;30223;17.182;-96.766;2023-05-10T15:55:39;24.40;50.70
44517;DHT22;30223;17.182;-96.766;2023-05-10T15:58:06;24.40;50.70